sensor_id;sensor_type;location;lat;lon;timestamp;P1;durP1;ratioP1;P2;durP2;ratioP2
80119;SDS011;69425;55.040;82.918;2023-07-20T00:00:40;9.05;;;4.43;;
80119;SDS011;69425;55.040;82.918;2023-07-20T00:05:42;12.07;;;4.55;;
80119;SDS011;69425;55.040;82.918;2023-07-20T00:10:43;7.80;;;5.20;;
80119;SDS011;69425;55.040;82.918;2023-07-20T00:15:45;8.38;;;5.10;;
80119;SDS011;69425;55.040;82.918;2023-07-20T00:20:47;8.43;;;4.80;;
80119;SDS011;69425;55.040;82.918;2023-07-20T00:25:49;9.73;;;4.95;;
80119;SDS011;69425;55.040;82.918;2023-07-20T00:30:50;7.68;;;4.93;;
80119;SDS011;69425;55.040;82.918;2023-07-20T00:35:52;8.02;;;5.05;;
80119;SDS011;69425;55.040;82.918;2023-07-20T00:40:54;11.82;;;5.18;;
80119;SDS011;69425;55.040;82.918;2023-07-20T00:45:55;13.05;;;4.65;;
80119;SDS011;69425;55.040;82.918;2023-07-20T00:50:58;9.00;;;4.97;;
80119;SDS011;69425;55.040;82.918;2023-07-20T00:55:59;8.13;;;5.10;;
80119;SDS011;69425;55.040;82.918;2023-07-20T01:01:01;6.75;;;5.28;;
80119;SDS011;69425;55.040;82.918;2023-07-20T01:06:04;17.30;;;7.43;;
80119;SDS011;69425;55.040;82.918;2023-07-20T01:11:12;10.27;;;5.78;;
80119;SDS011;69425;55.040;82.918;2023-07-20T01:16:16;8.63;;;5.03;;
80119;SDS011;69425;55.040;82.918;2023-07-20T01:21:21;13.98;;;5.82;;
80119;SDS011;69425;55.040;82.918;2023-07-20T01:26:27;11.65;;;5.55;;
80119;SDS011;69425;55.040;82.918;2023-07-20T01:31:40;10.18;;;5.53;;
80119;SDS011;69425;55.040;82.918;2023-07-20T01:36:42;12.48;;;5.93;;
80119;SDS011;69425;55.040;82.918;2023-07-20T01:41:44;9.68;;;5.30;;
80119;SDS011;69425;55.040;82.918;2023-07-20T01:46:47;13.57;;;6.05;;
80119;SDS011;69425;55.040;82.918;2023-07-20T01:51:48;12.82;;;6.85;;
80119;SDS011;69425;55.040;82.918;2023-07-20T01:56:49;12.00;;;5.97;;
80119;SDS011;69425;55.040;82.918;2023-07-20T02:01:52;10.88;;;5.53;;
80119;SDS011;69425;55.040;82.918;2023-07-20T02:06:53;9.50;;;5.78;;
80119;SDS011;69425;55.040;82.918;2023-07-20T02:11:54;10.27;;;5.78;;
80119;SDS011;69425;55.040;82.918;2023-07-20T02:16:57;13.50;;;6.15;;
80119;SDS011;69425;55.040;82.918;2023-07-20T02:21:58;13.20;;;5.82;;
80119;SDS011;69425;55.040;82.918;2023-07-20T02:27:00;7.68;;;5.80;;
80119;SDS011;69425;55.040;82.918;2023-07-20T02:32:03;17.58;;;6.93;;
80119;SDS011;69425;55.040;82.918;2023-07-20T02:37:05;7.85;;;5.47;;
80119;SDS011;69425;55.040;82.918;2023-07-20T02:42:06;10.27;;;6.22;;
80119;SDS011;69425;55.040;82.918;2023-07-20T02:47:09;9.98;;;5.95;;
80119;SDS011;69425;55.040;82.918;2023-07-20T02:52:10;10.05;;;5.75;;
80119;SDS011;69425;55.040;82.918;2023-07-20T02:57:11;12.93;;;6.07;;
80119;SDS011;69425;55.040;82.918;2023-07-20T03:02:14;15.05;;;6.05;;
80119;SDS011;69425;55.040;82.918;2023-07-20T03:07:15;12.48;;;6.20;;
80119;SDS011;69425;55.040;82.918;2023-07-20T03:12:16;13.25;;;6.72;;
80119;SDS011;69425;55.040;82.918;2023-07-20T03:17:19;14.85;;;6.53;;
80119;SDS011;69425;55.040;82.918;2023-07-20T03:22:20;14.30;;;6.97;;
80119;SDS011;69425;55.040;82.918;2023-07-20T03:27:22;9.57;;;6.53;;
80119;SDS011;69425;55.040;82.918;2023-07-20T03:32:24;14.73;;;6.47;;
80119;SDS011;69425;55.040;82.918;2023-07-20T03:37:26;16.45;;;7.25;;
80119;SDS011;69425;55.040;82.918;2023-07-20T03:42:27;12.35;;;6.88;;
80119;SDS011;69425;55.040;82.918;2023-07-20T03:47:29;12.95;;;6.38;;
80119;SDS011;69425;55.040;82.918;2023-07-20T03:52:31;12.48;;;5.72;;
80119;SDS011;69425;55.040;82.918;2023-07-20T03:57:32;18.35;;;6.65;;
80119;SDS011;69425;55.040;82.918;2023-07-20T04:02:35;11.90;;;6.50;;
80119;SDS011;69425;55.040;82.918;2023-07-20T04:07:36;11.35;;;6.85;;
80119;SDS011;69425;55.040;82.918;2023-07-20T04:12:37;13.88;;;5.70;;
80119;SDS011;69425;55.040;82.918;2023-07-20T04:17:40;15.18;;;5.60;;
80119;SDS011;69425;55.040;82.918;2023-07-20T04:22:41;11.88;;;6.30;;
80119;SDS011;69425;55.040;82.918;2023-07-20T04:27:42;16.05;;;7.70;;
80119;SDS011;69425;55.040;82.918;2023-07-20T04:32:45;13.90;;;9.43;;
80119;SDS011;69425;55.040;82.918;2023-07-20T04:37:46;11.40;;;6.20;;
80119;SDS011;69425;55.040;82.918;2023-07-20T04:42:48;10.68;;;6.50;;
80119;SDS011;69425;55.040;82.918;2023-07-20T04:47:50;12.15;;;5.80;;
80119;SDS011;69425;55.040;82.918;2023-07-20T04:52:51;14.05;;;9.15;;
80119;SDS011;69425;55.040;82.918;2023-07-20T04:57:53;11.88;;;7.13;;
80119;SDS011;69425;55.040;82.918;2023-07-20T05:02:56;10.45;;;6.95;;
80119;SDS011;69425;55.040;82.918;2023-07-20T05:07:57;10.48;;;6.90;;
80119;SDS011;69425;55.040;82.918;2023-07-20T05:12:58;14.27;;;7.32;;
80119;SDS011;69425;55.040;82.918;2023-07-20T05:18:01;13.02;;;7.82;;
80119;SDS011;69425;55.040;82.918;2023-07-20T05:23:02;20.10;;;7.97;;
80119;SDS011;69425;55.040;82.918;2023-07-20T05:28:03;14.35;;;7.57;;
80119;SDS011;69425;55.040;82.918;2023-07-20T05:33:06;13.43;;;7.97;;
80119;SDS011;69425;55.040;82.918;2023-07-20T05:38:07;12.80;;;6.47;;
80119;SDS011;69425;55.040;82.918;2023-07-20T05:43:08;13.23;;;7.28;;
80119;SDS011;69425;55.040;82.918;2023-07-20T05:48:11;10.85;;;6.25;;
80119;SDS011;69425;55.040;82.918;2023-07-20T05:53:12;12.40;;;7.68;;
80119;SDS011;69425;55.040;82.918;2023-07-20T05:58:14;8.90;;;7.00;;
80119;SDS011;69425;55.040;82.918;2023-07-20T06:03:16;11.35;;;7.68;;
80119;SDS011;69425;55.040;82.918;2023-07-20T06:08:17;12.80;;;7.18;;
80119;SDS011;69425;55.040;82.918;2023-07-20T06:13:19;30.90;;;7.57;;
80119;SDS011;69425;55.040;82.918;2023-07-20T06:18:22;9.27;;;5.90;;
80119;SDS011;69425;55.040;82.918;2023-07-20T06:23:23;16.08;;;7.10;;
80119;SDS011;69425;55.040;82.918;2023-07-20T06:28:24;11.18;;;6.30;;
80119;SDS011;69425;55.040;82.918;2023-07-20T06:33:27;13.63;;;6.63;;
80119;SDS011;69425;55.040;82.918;2023-07-20T06:38:28;10.10;;;6.75;;
80119;SDS011;69425;55.040;82.918;2023-07-20T06:43:29;10.98;;;6.53;;
80119;SDS011;69425;55.040;82.918;2023-07-20T06:48:32;11.52;;;6.82;;
80119;SDS011;69425;55.040;82.918;2023-07-20T06:53:33;9.57;;;6.70;;
80119;SDS011;69425;55.040;82.918;2023-07-20T06:58:34;14.05;;;7.32;;
80119;SDS011;69425;55.040;82.918;2023-07-20T07:03:37;14.88;;;8.32;;
80119;SDS011;69425;55.040;82.918;2023-07-20T07:08:38;14.93;;;8.18;;
80119;SDS011;69425;55.040;82.918;2023-07-20T07:13:40;14.20;;;7.50;;
80119;SDS011;69425;55.040;82.918;2023-07-20T07:18:42;17.13;;;7.93;;
80119;SDS011;69425;55.040;82.918;2023-07-20T07:23:44;15.63;;;7.80;;
80119;SDS011;69425;55.040;82.918;2023-07-20T07:28:45;14.68;;;8.38;;
80119;SDS011;69425;55.040;82.918;2023-07-20T07:33:48;16.48;;;7.65;;
80119;SDS011;69425;55.040;82.918;2023-07-20T07:38:49;12.73;;;7.65;;
80119;SDS011;69425;55.040;82.918;2023-07-20T07:43:50;13.55;;;8.63;;
80119;SDS011;69425;55.040;82.918;2023-07-20T07:48:53;14.57;;;7.85;;
80119;SDS011;69425;55.040;82.918;2023-07-20T07:53:54;13.40;;;9.30;;
80119;SDS011;69425;55.040;82.918;2023-07-20T07:58:55;19.67;;;9.18;;
80119;SDS011;69425;55.040;82.918;2023-07-20T08:03:58;13.20;;;8.63;;
80119;SDS011;69425;55.040;82.918;2023-07-20T08:08:59;21.13;;;8.93;;
80119;SDS011;69425;55.040;82.918;2023-07-20T08:14:00;18.88;;;9.55;;
80119;SDS011;69425;55.040;82.918;2023-07-20T08:19:03;15.98;;;8.55;;
80119;SDS011;69425;55.040;82.918;2023-07-20T08:24:05;16.02;;;8.27;;
80119;SDS011;69425;55.040;82.918;2023-07-20T08:29:06;13.38;;;9.27;;
80119;SDS011;69425;55.040;82.918;2023-07-20T08:34:09;14.55;;;9.45;;
80119;SDS011;69425;55.040;82.918;2023-07-20T08:39:10;13.20;;;9.23;;
80119;SDS011;69425;55.040;82.918;2023-07-20T08:44:11;14.18;;;8.25;;
80119;SDS011;69425;55.040;82.918;2023-07-20T08:49:14;18.05;;;9.35;;
80119;SDS011;69425;55.040;82.918;2023-07-20T08:54:16;16.17;;;7.93;;
80119;SDS011;69425;55.040;82.918;2023-07-20T08:59:17;21.63;;;10.20;;
80119;SDS011;69425;55.040;82.918;2023-07-20T09:04:20;18.25;;;8.82;;
80119;SDS011;69425;55.040;82.918;2023-07-20T09:09:21;16.75;;;8.63;;
80119;SDS011;69425;55.040;82.918;2023-07-20T09:14:23;17.25;;;8.32;;
80119;SDS011;69425;55.040;82.918;2023-07-20T09:19:26;13.60;;;7.80;;
80119;SDS011;69425;55.040;82.918;2023-07-20T09:24:28;13.55;;;7.55;;
80119;SDS011;69425;55.040;82.918;2023-07-20T09:29:29;16.25;;;8.23;;
80119;SDS011;69425;55.040;82.918;2023-07-20T09:34:32;11.68;;;7.95;;
80119;SDS011;69425;55.040;82.918;2023-07-20T09:39:35;10.88;;;7.65;;
80119;SDS011;69425;55.040;82.918;2023-07-20T09:44:43;14.93;;;8.30;;
80119;SDS011;69425;55.040;82.918;2023-07-20T09:49:46;9.57;;;7.72;;
80119;SDS011;69425;55.040;82.918;2023-07-20T09:54:47;12.20;;;7.50;;
80119;SDS011;69425;55.040;82.918;2023-07-20T09:59:48;9.88;;;7.35;;
80119;SDS011;69425;55.040;82.918;2023-07-20T10:04:52;10.02;;;7.32;;
80119;SDS011;69425;55.040;82.918;2023-07-20T10:09:54;9.07;;;7.30;;
80119;SDS011;69425;55.040;82.918;2023-07-20T10:14:57;7.68;;;6.40;;
80119;SDS011;69425;55.040;82.918;2023-07-20T10:20:07;8.57;;;7.07;;
80119;SDS011;69425;55.040;82.918;2023-07-20T10:25:10;10.00;;;6.60;;
80119;SDS011;69425;55.040;82.918;2023-07-20T10:30:11;11.00;;;7.63;;
80119;SDS011;69425;55.040;82.918;2023-07-20T10:35:14;9.45;;;7.72;;
80119;SDS011;69425;55.040;82.918;2023-07-20T10:40:29;10.77;;;6.93;;
80119;SDS011;69425;55.040;82.918;2023-07-20T10:45:41;8.52;;;6.57;;
80119;SDS011;69425;55.040;82.918;2023-07-20T10:50:46;8.13;;;6.97;;
80119;SDS011;69425;55.040;82.918;2023-07-20T10:56:11;9.18;;;7.55;;
80119;SDS011;69425;55.040;82.918;2023-07-20T11:01:14;12.15;;;7.68;;
80119;SDS011;69425;55.040;82.918;2023-07-20T11:06:33;10.88;;;6.57;;
80119;SDS011;69425;55.040;82.918;2023-07-20T11:11:36;9.30;;;7.97;;
80119;SDS011;69425;55.040;82.918;2023-07-20T11:16:39;10.35;;;8.20;;
80119;SDS011;69425;55.040;82.918;2023-07-20T11:21:43;9.60;;;7.65;;
80119;SDS011;69425;55.040;82.918;2023-07-20T11:26:46;11.50;;;8.60;;
80119;SDS011;69425;55.040;82.918;2023-07-20T11:31:48;11.45;;;9.15;;
80119;SDS011;69425;55.040;82.918;2023-07-20T11:36:51;12.55;;;7.82;;
80119;SDS011;69425;55.040;82.918;2023-07-20T11:41:53;11.30;;;8.13;;
80119;SDS011;69425;55.040;82.918;2023-07-20T11:47:01;12.18;;;7.88;;
80119;SDS011;69425;55.040;82.918;2023-07-20T11:52:05;12.90;;;8.45;;
80119;SDS011;69425;55.040;82.918;2023-07-20T11:57:07;13.60;;;10.55;;
80119;SDS011;69425;55.040;82.918;2023-07-20T12:02:16;15.00;;;9.85;;
80119;SDS011;69425;55.040;82.918;2023-07-20T12:07:20;15.00;;;8.65;;
80119;SDS011;69425;55.040;82.918;2023-07-20T12:12:21;16.63;;;9.48;;
80119;SDS011;69425;55.040;82.918;2023-07-20T12:17:22;13.63;;;9.60;;
80119;SDS011;69425;55.040;82.918;2023-07-20T12:22:25;11.98;;;8.38;;
80119;SDS011;69425;55.040;82.918;2023-07-20T12:27:27;13.23;;;8.52;;
80119;SDS011;69425;55.040;82.918;2023-07-20T12:32:29;10.25;;;7.82;;
80119;SDS011;69425;55.040;82.918;2023-07-20T12:37:31;10.20;;;7.75;;
80119;SDS011;69425;55.040;82.918;2023-07-20T12:42:32;11.25;;;8.18;;
80119;SDS011;69425;55.040;82.918;2023-07-20T12:47:36;12.13;;;8.80;;
80119;SDS011;69425;55.040;82.918;2023-07-20T12:52:39;14.52;;;9.55;;
80119;SDS011;69425;55.040;82.918;2023-07-20T12:57:41;14.10;;;9.82;;
80119;SDS011;69425;55.040;82.918;2023-07-20T13:02:42;15.90;;;10.00;;
80119;SDS011;69425;55.040;82.918;2023-07-20T13:07:45;15.27;;;10.05;;
80119;SDS011;69425;55.040;82.918;2023-07-20T13:12:46;16.63;;;10.68;;
80119;SDS011;69425;55.040;82.918;2023-07-20T13:17:47;15.68;;;10.52;;
80119;SDS011;69425;55.040;82.918;2023-07-20T13:22:50;12.38;;;9.65;;
80119;SDS011;69425;55.040;82.918;2023-07-20T13:27:51;14.48;;;9.65;;
80119;SDS011;69425;55.040;82.918;2023-07-20T13:32:53;13.77;;;9.57;;
80119;SDS011;69425;55.040;82.918;2023-07-20T13:37:55;12.88;;;8.90;;
80119;SDS011;69425;55.040;82.918;2023-07-20T13:42:57;11.00;;;7.68;;
80119;SDS011;69425;55.040;82.918;2023-07-20T13:47:58;15.52;;;9.07;;
80119;SDS011;69425;55.040;82.918;2023-07-20T13:53:01;12.90;;;8.70;;
80119;SDS011;69425;55.040;82.918;2023-07-20T13:58:02;11.23;;;8.35;;
80119;SDS011;69425;55.040;82.918;2023-07-20T14:03:03;10.70;;;7.32;;
80119;SDS011;69425;55.040;82.918;2023-07-20T14:08:06;9.88;;;6.93;;
80119;SDS011;69425;55.040;82.918;2023-07-20T14:13:07;9.10;;;6.35;;
80119;SDS011;69425;55.040;82.918;2023-07-20T14:18:08;6.97;;;4.80;;
80119;SDS011;69425;55.040;82.918;2023-07-20T14:23:11;5.65;;;3.53;;
80119;SDS011;69425;55.040;82.918;2023-07-20T14:28:12;5.57;;;3.92;;
80119;SDS011;69425;55.040;82.918;2023-07-20T14:33:13;7.35;;;4.90;;
80119;SDS011;69425;55.040;82.918;2023-07-20T14:38:16;5.88;;;4.60;;
80119;SDS011;69425;55.040;82.918;2023-07-20T14:43:17;6.68;;;5.05;;
80119;SDS011;69425;55.040;82.918;2023-07-20T14:48:18;8.27;;;6.00;;
80119;SDS011;69425;55.040;82.918;2023-07-20T14:53:21;8.68;;;6.25;;
80119;SDS011;69425;55.040;82.918;2023-07-20T14:58:22;8.45;;;6.25;;
80119;SDS011;69425;55.040;82.918;2023-07-20T15:03:24;9.65;;;5.80;;
80119;SDS011;69425;55.040;82.918;2023-07-20T15:08:26;8.32;;;5.88;;
80119;SDS011;69425;55.040;82.918;2023-07-20T15:13:28;6.75;;;4.68;;
80119;SDS011;69425;55.040;82.918;2023-07-20T15:18:29;7.10;;;3.80;;
80119;SDS011;69425;55.040;82.918;2023-07-20T15:23:31;5.72;;;4.05;;
80119;SDS011;69425;55.040;82.918;2023-07-20T15:28:33;5.97;;;4.25;;
80119;SDS011;69425;55.040;82.918;2023-07-20T15:33:34;6.63;;;4.05;;
80119;SDS011;69425;55.040;82.918;2023-07-20T15:38:37;6.47;;;4.88;;
80119;SDS011;69425;55.040;82.918;2023-07-20T15:43:38;6.28;;;5.03;;
80119;SDS011;69425;55.040;82.918;2023-07-20T15:48:39;7.38;;;4.93;;
80119;SDS011;69425;55.040;82.918;2023-07-20T15:53:42;7.80;;;5.05;;
80119;SDS011;69425;55.040;82.918;2023-07-20T15:58:43;7.75;;;4.30;;
80119;SDS011;69425;55.040;82.918;2023-07-20T16:03:44;6.68;;;4.03;;
80119;SDS011;69425;55.040;82.918;2023-07-20T16:08:47;5.72;;;3.78;;
80119;SDS011;69425;55.040;82.918;2023-07-20T16:13:48;7.57;;;4.75;;
80119;SDS011;69425;55.040;82.918;2023-07-20T16:18:49;8.23;;;4.80;;
80119;SDS011;69425;55.040;82.918;2023-07-20T16:23:52;7.60;;;5.28;;
80119;SDS011;69425;55.040;82.918;2023-07-20T16:28:53;7.80;;;4.85;;
80119;SDS011;69425;55.040;82.918;2023-07-20T16:33:55;6.60;;;4.25;;
80119;SDS011;69425;55.040;82.918;2023-07-20T16:38:57;8.13;;;5.32;;
80119;SDS011;69425;55.040;82.918;2023-07-20T16:43:59;10.95;;;5.63;;
80119;SDS011;69425;55.040;82.918;2023-07-20T16:49:00;7.72;;;4.90;;
80119;SDS011;69425;55.040;82.918;2023-07-20T16:54:03;7.30;;;4.75;;
80119;SDS011;69425;55.040;82.918;2023-07-20T16:59:04;8.63;;;4.82;;
80119;SDS011;69425;55.040;82.918;2023-07-20T17:04:05;7.57;;;4.75;;
80119;SDS011;69425;55.040;82.918;2023-07-20T17:09:08;8.65;;;5.13;;
80119;SDS011;69425;55.040;82.918;2023-07-20T17:14:09;8.48;;;5.68;;
80119;SDS011;69425;55.040;82.918;2023-07-20T17:19:10;8.70;;;6.15;;
80119;SDS011;69425;55.040;82.918;2023-07-20T17:24:13;12.70;;;8.07;;
80119;SDS011;69425;55.040;82.918;2023-07-20T17:29:14;11.25;;;7.72;;
80119;SDS011;69425;55.040;82.918;2023-07-20T17:34:15;16.27;;;10.20;;
80119;SDS011;69425;55.040;82.918;2023-07-20T17:39:18;26.40;;;15.77;;
80119;SDS011;69425;55.040;82.918;2023-07-20T17:44:19;26.75;;;18.63;;
80119;SDS011;69425;55.040;82.918;2023-07-20T17:49:20;22.45;;;15.63;;
80119;SDS011;69425;55.040;82.918;2023-07-20T17:54:23;23.88;;;14.73;;
80119;SDS011;69425;55.040;82.918;2023-07-20T17:59:24;26.15;;;15.25;;
80119;SDS011;69425;55.040;82.918;2023-07-20T18:04:25;21.40;;;13.48;;
80119;SDS011;69425;55.040;82.918;2023-07-20T18:09:28;19.95;;;13.13;;
80119;SDS011;69425;55.040;82.918;2023-07-20T18:14:29;20.25;;;12.73;;
80119;SDS011;69425;55.040;82.918;2023-07-20T18:19:30;16.13;;;10.48;;
80119;SDS011;69425;55.040;82.918;2023-07-20T18:24:33;14.82;;;9.65;;
80119;SDS011;69425;55.040;82.918;2023-07-20T18:29:34;14.73;;;7.93;;
80119;SDS011;69425;55.040;82.918;2023-07-20T18:34:36;14.32;;;7.70;;
80119;SDS011;69425;55.040;82.918;2023-07-20T18:39:38;13.10;;;8.00;;
80119;SDS011;69425;55.040;82.918;2023-07-20T18:44:39;13.60;;;7.18;;
80119;SDS011;69425;55.040;82.918;2023-07-20T18:49:41;12.52;;;7.63;;
80119;SDS011;69425;55.040;82.918;2023-07-20T18:54:43;11.00;;;5.97;;
80119;SDS011;69425;55.040;82.918;2023-07-20T18:59:45;10.43;;;6.13;;
80119;SDS011;69425;55.040;82.918;2023-07-20T19:04:46;15.45;;;7.10;;
80119;SDS011;69425;55.040;82.918;2023-07-20T19:09:48;12.45;;;6.85;;
80119;SDS011;69425;55.040;82.918;2023-07-20T19:14:50;8.85;;;5.47;;
80119;SDS011;69425;55.040;82.918;2023-07-20T19:19:51;13.65;;;7.65;;
80119;SDS011;69425;55.040;82.918;2023-07-20T19:24:54;18.30;;;11.38;;
80119;SDS011;69425;55.040;82.918;2023-07-20T19:29:55;18.90;;;10.18;;
80119;SDS011;69425;55.040;82.918;2023-07-20T19:34:56;21.55;;;12.05;;
80119;SDS011;69425;55.040;82.918;2023-07-20T19:39:59;23.00;;;15.10;;
80119;SDS011;69425;55.040;82.918;2023-07-20T19:45:00;39.70;;;21.00;;
80119;SDS011;69425;55.040;82.918;2023-07-20T19:50:03;39.88;;;22.30;;
80119;SDS011;69425;55.040;82.918;2023-07-20T19:55:07;32.00;;;18.38;;
80119;SDS011;69425;55.040;82.918;2023-07-20T20:00:09;35.15;;;16.33;;
80119;SDS011;69425;55.040;82.918;2023-07-20T20:05:11;26.95;;;13.88;;
80119;SDS011;69425;55.040;82.918;2023-07-20T20:10:14;14.90;;;10.18;;
80119;SDS011;69425;55.040;82.918;2023-07-20T20:15:15;14.18;;;8.77;;
80119;SDS011;69425;55.040;82.918;2023-07-20T20:20:17;11.65;;;8.32;;
80119;SDS011;69425;55.040;82.918;2023-07-20T20:25:19;13.77;;;8.20;;
80119;SDS011;69425;55.040;82.918;2023-07-20T20:30:20;11.00;;;7.38;;
80119;SDS011;69425;55.040;82.918;2023-07-20T20:35:22;13.60;;;7.30;;
80119;SDS011;69425;55.040;82.918;2023-07-20T20:40:25;10.30;;;6.90;;
80119;SDS011;69425;55.040;82.918;2023-07-20T20:45:26;8.23;;;5.70;;
80119;SDS011;69425;55.040;82.918;2023-07-20T20:50:27;9.32;;;5.57;;
80119;SDS011;69425;55.040;82.918;2023-07-20T20:55:30;8.63;;;5.65;;
80119;SDS011;69425;55.040;82.918;2023-07-20T21:00:31;7.03;;;5.20;;
80119;SDS011;69425;55.040;82.918;2023-07-20T21:05:33;8.80;;;5.60;;
80119;SDS011;69425;55.040;82.918;2023-07-20T21:10:35;7.00;;;4.72;;
80119;SDS011;69425;55.040;82.918;2023-07-20T21:15:38;6.30;;;4.90;;
80119;SDS011;69425;55.040;82.918;2023-07-20T21:20:39;10.80;;;5.55;;
80119;SDS011;69425;55.040;82.918;2023-07-20T21:25:42;8.38;;;5.82;;
80119;SDS011;69425;55.040;82.918;2023-07-20T21:30:44;8.85;;;5.95;;
80119;SDS011;69425;55.040;82.918;2023-07-20T21:35:45;8.98;;;6.03;;
80119;SDS011;69425;55.040;82.918;2023-07-20T21:40:48;7.22;;;4.97;;
80119;SDS011;69425;55.040;82.918;2023-07-20T21:45:49;7.72;;;5.45;;
80119;SDS011;69425;55.040;82.918;2023-07-20T21:50:51;8.32;;;5.30;;
80119;SDS011;69425;55.040;82.918;2023-07-20T21:55:54;8.20;;;6.18;;
80119;SDS011;69425;55.040;82.918;2023-07-20T22:00:55;8.75;;;6.45;;
80119;SDS011;69425;55.040;82.918;2023-07-20T22:05:57;8.77;;;5.60;;
80119;SDS011;69425;55.040;82.918;2023-07-20T22:11:06;9.35;;;6.43;;
80119;SDS011;69425;55.040;82.918;2023-07-20T22:16:08;7.32;;;6.05;;
80119;SDS011;69425;55.040;82.918;2023-07-20T22:21:09;7.85;;;5.40;;
80119;SDS011;69425;55.040;82.918;2023-07-20T22:26:12;8.57;;;5.90;;
80119;SDS011;69425;55.040;82.918;2023-07-20T22:31:13;9.88;;;5.95;;
80119;SDS011;69425;55.040;82.918;2023-07-20T22:36:14;9.68;;;6.03;;
80119;SDS011;69425;55.040;82.918;2023-07-20T22:41:17;9.32;;;5.97;;
80119;SDS011;69425;55.040;82.918;2023-07-20T22:46:18;9.32;;;5.05;;
80119;SDS011;69425;55.040;82.918;2023-07-20T22:51:19;5.55;;;4.20;;
80119;SDS011;69425;55.040;82.918;2023-07-20T22:56:22;5.68;;;4.00;;
80119;SDS011;69425;55.040;82.918;2023-07-20T23:01:23;7.40;;;4.55;;
80119;SDS011;69425;55.040;82.918;2023-07-20T23:06:24;8.25;;;4.80;;
80119;SDS011;69425;55.040;82.918;2023-07-20T23:11:27;7.25;;;4.70;;
80119;SDS011;69425;55.040;82.918;2023-07-20T23:16:28;8.93;;;5.32;;
80119;SDS011;69425;55.040;82.918;2023-07-20T23:21:31;8.43;;;5.15;;
80119;SDS011;69425;55.040;82.918;2023-07-20T23:26:34;6.70;;;5.20;;
80119;SDS011;69425;55.040;82.918;2023-07-20T23:31:35;7.72;;;5.45;;
80119;SDS011;69425;55.040;82.918;2023-07-20T23:36:36;8.25;;;5.22;;
80119;SDS011;69425;55.040;82.918;2023-07-20T23:41:39;9.25;;;4.82;;
80119;SDS011;69425;55.040;82.918;2023-07-20T23:46:40;6.40;;;4.93;;
80119;SDS011;69425;55.040;82.918;2023-07-20T23:51:41;6.70;;;4.95;;
80119;SDS011;69425;55.040;82.918;2023-07-20T23:56:44;5.57;;;4.38;;
